x

Shelikof Strait, Ak (46077) Wave Buoy

8:50pm - Sun 22nd Oct 2017 All times are AKDT. -8 hours from GMT.

  • Sig Wave height 2.0ft
  • Swell Direction
  • Peak Period 10s
  • Average Period 5s
  • Wind
    11mph, 13mph gusts
  • Sea Temp 47°f
  • Air Temp 39°f
  • Sea Pressure 1004mb
  • Shelikof  Strait, Ak
  • Shelikof  Strait, Ak

More Historic Weather Station data

Upgrade to MSW Pro to gain access to the past 30 days of data for over 8000 Wavebouys and Weather Stations around the globe.

Join

Comparision Forecast

View Surf forecast
   
Sun 10/22 8:50pm 2ft 10s 5s 11 13 mph 1004mb 47f 39f
7:50pm 2.5ft 6s 5s 7 9 mph 1003.8mb 47f 39f
6:50pm 2.5ft 5s 5s 9 13 mph 1003.2mb 47f 39f
5:50pm 2.5ft 5s 5s 13 16 mph 1002.8mb 47f 39f
4:50pm 2.5ft 6s 5s 2 4 mph 1002.5mb 47f 37f
3:50pm 3ft 5s 5s 4 7 mph 1002.4mb 47f 35f
2:50pm 3.5ft 5s 5s 11 16 mph 1001.9mb 47f 33f
1:50pm 3.5ft 5s 5s 11 13 mph 1001.6mb 47f 37f
12:50pm 3.5ft 5s 5s 13 18 mph 1001.2mb 47f 37f
11:50am 3.5ft 5s 5s 16 20 mph 1000.3mb 47f 36f
10:50am 3.5ft 5s 5s 16 22 mph 999.4mb 47f 35f
9:50am 3.5ft 6s 5s 18 20 mph 998.4mb 47f 35f
8:50am 3.5ft 5s 5s 18 22 mph 997.6mb 47f 36f
7:50am 4ft 6s 5s 18 22 mph 996.7mb 47f 35f
6:50am 4.5ft 6s 5s 20 25 mph 995.7mb 47f 35f
5:50am 4.5ft 6s 5s 20 27 mph 994.9mb 47f 35f
4:50am 4.5ft 6s 5s 25 29 mph 994mb 47f 35f
3:50am 4ft 5s 5s 20 25 mph 993.3mb 47f 36f
2:50am 3.5ft 4s 4s 22 27 mph 992.9mb 47f 35f
1:50am 3.5ft 10s 4s 20 25 mph 992.7mb 47f 36f
12:50am 2.5ft 10s 5s 20 29 mph 992.7mb 47f 34f
Sat 10/21 11:50pm 2.5ft 10s 6s 9 13 mph 992.5mb 47f 36f
10:50pm 2.5ft 10s 4s 7 11 mph 992.1mb 47f 34f
9:50pm 2ft 11s 7s 20 22 mph 991.6mb 47f 35f
8:50pm 2ft 11s 6s 4 9 mph 991.4mb 47f 37f
7:50pm 2ft 11s 5s 2 4 mph 991mb 47f 36f
6:50pm 2ft 11s 5s 2 4 mph 990.9mb 47f 36f
5:50pm 2.5ft 11s 6s 2 4 mph 990.5mb 47f 36f
4:50pm 2.5ft 11s 6s  -  2 mph 990.6mb 47f 36f
3:50pm 2.5ft 11s 6s 2 7 mph 990.6mb 47f 36f
2:50pm 2ft 11s 6s 4 7 mph 990.8mb 47f 35f
1:50pm 2ft 17s 6s 7 11 mph 990.9mb 47f 35f
12:50pm 2ft 6s 5s 9 11 mph 990.9mb 46f 35f
11:50am 1.6ft 6s 4s 11 16 mph 991.1mb 47f 35f
10:50am 1.6ft 6s 4s 11 16 mph 991mb 47f 35f
9:50am 1.6ft 6s 4s 13 18 mph 990.8mb 47f 35f
8:50am 1.6ft 5s 3s 13 16 mph 990.7mb 47f 35f
7:50am 1.6ft 5s 3s 13 16 mph 990.5mb 47f 35f
6:50am 2ft 5s 3s 16 18 mph 990.3mb 47f 35f
5:50am 2ft 5s 3s 16 20 mph 990.2mb 47f 35f
4:50am 2ft 3s 3s 16 20 mph 990.1mb 47f 35f
3:50am 1.6ft 4s 3s 18 20 mph 990mb 47f 36f
2:50am 2ft 3s 3s 13 18 mph 990.3mb 47f 35f
1:50am 1.6ft 3s 3s 11 16 mph 990.4mb 47f 35f
12:50am 1.6ft 3s 3s 16 18 mph 990.4mb 47f 36f
Fri 10/20 11:50pm 1.6ft 3s 3s 16 20 mph 990.4mb 47f 35f
10:50pm 1.6ft 3s 3s 18 22 mph 990.2mb 47f 35f
9:50pm 1ft 8s 4s 11 16 mph 990.3mb 47f 36f
8:50pm 1ft 6s 4s 9 13 mph 990.1mb 47f 36f
7:50pm 1ft 4s 4s 11 16 mph 990mb 47f 35f
6:50pm 1ft 8s 5s 9 16 mph 989.8mb 47f 35f
5:50pm 1ft 9s 4s 11 13 mph 989.7mb 47f 35f
4:50pm 1.3ft 5s 4s 9 11 mph 989.7mb 47f 35f
3:50pm 1.3ft 5s 4s 7 9 mph 989.7mb 47f 35f
2:50pm 1.3ft 5s 4s 9 11 mph 990.1mb 47f 35f
1:50pm 1.3ft 5s 4s 9 13 mph 990.5mb 47f 35f
12:50pm 1.3ft 9s 4s 7 11 mph 990.8mb 47f 35f
11:50am 1.6ft 3s 3s 11 13 mph 991.1mb 47f 34f
10:50am 1.6ft 3s 4s 13 18 mph 991.2mb 47f 34f
9:50am 2ft 3s 4s 11 18 mph 991.1mb 47f 34f
8:50am 1.6ft 3s 4s 13 18 mph 991.2mb 47f 34f
7:50am 1.6ft 7s 4s 16 20 mph 991.1mb 47f 34f
6:50am 1.6ft 6s 4s 4 7 mph 991.4mb 47f 35f
5:50am 2ft 5s 4s 4 7 mph 991.4mb 47f 35f
4:50am 2ft 6s 4s 4 7 mph 991.7mb 47f 35f
3:50am 2.5ft 5s 4s 4 9 mph 992mb 47f 35f
2:50am 2.5ft 5s 4s 2 4 mph 992.3mb 47f 35f
1:50am 3ft 5s 4s 2 4 mph 992.5mb 47f 35f
12:50am 3ft 5s 5s 4 9 mph 993.1mb 47f 35f
Thu 10/19 11:50pm 3.5ft 6s 5s 9 11 mph 993.3mb 47f 35f
10:50pm 3.5ft 6s 5s 7 11 mph 993.8mb 47f 35f
9:50pm 3.5ft 6s 5s 9 13 mph 994.2mb 47f 35f
8:50pm 3.5ft 6s 5s 13 18 mph 994.3mb 48f 36f
7:50pm 3.5ft 6s 5s 16 20 mph 994.2mb 48f 36f
6:50pm 3.5ft 5s 4s 18 20 mph 994mb 48f 37f
5:50pm 3.5ft 5s 4s 18 22 mph 993.9mb 48f 37f
4:50pm 3.5ft 5s  -  18 25 mph 994mb 48f 38f
3:50pm 3.5ft 4s 4s 16 20 mph 994.3mb 48f 38f
2:50pm 3.5ft 5s 4s 18 22 mph 994.6mb 48f 37f
1:50pm 3.5ft 5s 4s 20 25 mph 995.4mb 48f 37f
12:50pm 4ft 5s 4s 18 22 mph 995.7mb 48f 37f
11:50am 4.5ft 6s 5s 18 22 mph 995.8mb 48f 37f
10:50am 4.5ft 6s 5s 18 25 mph 995.8mb 48f 37f
9:50am 3.5ft 5s 4s 16 18 mph 995.7mb 48f 37f
8:50am 3.5ft 6s 5s 18 22 mph 995.6mb 48f 37f
7:50am 4.5ft 6s 5s 16 20 mph 995.6mb 48f 37f
6:50am 5ft 6s 5s 20 25 mph 995.5mb 47f 37f